Wellsburg, Kentucky
Current Conditions -  °F | °C
As of 10:55 PM on Wednesday 22 Oct 2014 (Local Time) from KFGX Reporting Station
Overcast Overcast  
Wind Chill: 44°   Ceiling: 2800
Heat Index: 47°   Visibility: 10mi
Dew Point: 41°   Wind: 7mph
Humidity: 78%   Direction: 30°NNE
Pressure: 30.28"   Gusts: NA
Location:  38.7475°N, 84.1516°W
Report Text: KFGX 230255Z AUTO 03006KT 10SM OVC028 09/05 A3028 RMK AO2 T00860050
Loading
Personal Weather Stations






























Interactive Weather Map
Tropical Storm Tracking
New forecast layout! Learn more

10-Day Weather Forecast

Advertisements
Track Severe Weather on mobile